Time;durP1;ratioP1;P1;durP2;ratioP2;P2;SDS_P1;SDS_P2;PMS_P1;PMS_P2;Temp;Humidity;BMP_temperature;BMP_pressure;BME280_temperature;BME280_humidity;BME280_pressure;Samples;Min_cycle;Max_cycle;Signal;HPM_P1;HPM_P2
2023/12/25 00:01:48;;;;;;;1.57;1.47;;;16.60;75.20;17.70;99873.00;;;;5054580;28;20181;-45
2023/12/25 00:04:13;;;;;;;1.67;1.50;;;16.60;76.00;17.70;99864.00;;;;5072391;28;20180;-53
2023/12/25 00:06:39;;;;;;;1.30;1.20;;;16.60;75.10;17.70;99869.00;;;;5070536;28;20174;-47
2023/12/25 00:09:05;;;;;;;1.40;1.30;;;16.60;75.10;17.70;99881.00;;;;5054823;28;20187;-44
2023/12/25 00:11:30;;;;;;;1.77;1.67;;;16.60;75.00;17.70;99875.00;;;;5078417;28;20209;-47
2023/12/25 00:13:57;;;;;;;1.40;1.30;;;16.60;75.00;17.70;99871.00;;;;5069967;28;20191;-46
2023/12/25 00:16:26;;;;;;;1.60;1.50;;;16.60;75.10;17.70;99858.00;;;;5070310;28;20180;-45
2023/12/25 00:18:55;;;;;;;1.73;1.43;;;16.50;75.00;17.70;99861.00;;;;5072451;28;20271;-45
2023/12/25 00:21:20;;;;;;;1.50;1.40;;;16.60;75.10;17.70;99861.00;;;;5069876;28;20201;-45
2023/12/25 00:23:46;;;;;;;1.97;1.60;;;16.50;75.00;17.70;99864.00;;;;5068140;28;20185;-49
2023/12/25 00:26:12;;;;;;;1.50;1.40;;;16.50;75.00;17.70;99865.00;;;;5070138;28;20188;-45
2023/12/25 00:28:37;;;;;;;1.40;1.30;;;16.50;75.00;17.70;99854.00;;;;5070037;28;20210;-44
2023/12/25 00:31:03;;;;;;;1.70;1.10;;;16.50;74.90;17.70;99859.00;;;;5048211;28;20624;-44
2023/12/25 00:33:29;;;;;;;1.40;1.30;;;16.50;74.90;17.70;99860.00;;;;5040593;28;20173;-44
2023/12/25 00:35:55;;;;;;;1.13;1.10;;;16.50;74.90;17.60;99867.00;;;;5067353;28;20177;-45
2023/12/25 00:38:20;;;;;;;1.40;1.17;;;16.50;74.90;17.60;99876.00;;;;5045123;28;20171;-45
2023/12/25 00:40:46;;;;;;;1.30;1.20;;;16.50;74.90;17.40;99863.00;;;;5070865;28;20214;-45
2023/12/25 00:43:12;;;;;;;1.10;1.10;;;16.50;74.90;17.60;99864.00;;;;5064402;28;20185;-44
2023/12/25 00:45:38;;;;;;;1.10;1.10;;;16.50;74.90;17.60;99869.00;;;;5071913;28;20573;-44
2023/12/25 00:48:05;;;;;;;1.30;1.20;;;16.50;74.90;17.60;99875.00;;;;5072575;28;20568;-44
2023/12/25 00:50:30;;;;;;;2.13;1.17;;;16.50;75.00;17.60;99867.00;;;;5066048;28;20205;-44
2023/12/25 00:52:56;;;;;;;1.40;1.30;;;16.50;74.90;17.60;99878.00;;;;5068906;28;20181;-44
2023/12/25 00:55:22;;;;;;;1.13;1.13;;;16.50;74.90;17.60;99878.00;;;;5069755;28;20177;-44
2023/12/25 00:57:47;;;;;;;1.27;1.17;;;16.50;74.90;17.60;99873.00;;;;5071033;28;20643;-44
2023/12/25 01:00:13;;;;;;;1.17;1.17;;;16.50;74.80;17.60;99876.00;;;;5073135;28;20661;-44
2023/12/25 01:02:39;;;;;;;1.30;1.20;;;16.50;74.80;17.60;99883.00;;;;5072856;28;20598;-44
2023/12/25 01:05:05;;;;;;;1.10;1.10;;;16.50;74.90;17.60;99876.00;;;;5068543;28;20175;-44
2023/12/25 01:07:31;;;;;;;1.43;1.10;;;16.40;74.80;17.60;99877.00;;;;5071575;28;20205;-44
2023/12/25 01:09:57;;;;;;;1.20;1.20;;;16.40;74.80;17.60;99872.00;;;;5042357;28;20246;-44
2023/12/25 01:12:22;;;;;;;1.17;1.10;;;16.50;74.90;17.60;99863.00;;;;5068410;28;20264;-44
2023/12/25 01:14:48;;;;;;;1.30;1.20;;;16.40;74.80;17.50;99860.00;;;;5070248;28;20720;-44
2023/12/25 01:17:14;;;;;;;1.07;1.03;;;16.40;74.80;17.60;99865.00;;;;5069858;28;20183;-44
2023/12/25 01:19:40;;;;;;;1.30;1.20;;;16.40;74.80;17.60;99864.00;;;;5064915;28;20208;-44
2023/12/25 01:22:05;;;;;;;1.10;1.10;;;16.40;74.80;17.50;99868.00;;;;5068541;28;20260;-44
2023/12/25 01:24:31;;;;;;;1.30;1.20;;;16.40;74.80;17.50;99868.00;;;;5068417;28;20232;-45
2023/12/25 01:26:57;;;;;;;0.90;0.90;;;16.40;74.80;17.50;99886.00;;;;5071524;28;20568;-44
2023/12/25 01:29:22;;;;;;;1.00;1.00;;;16.40;74.80;17.50;99893.00;;;;5065474;28;20192;-44
2023/12/25 01:31:48;;;;;;;1.20;1.20;;;16.40;74.80;17.50;99881.00;;;;5069915;28;20205;-44
2023/12/25 01:34:14;;;;;;;1.10;1.10;;;16.40;74.80;17.30;99886.00;;;;5068906;28;20187;-45
2023/12/25 01:36:40;;;;;;;1.10;1.10;;;16.40;74.80;17.50;99878.00;;;;5068743;28;20612;-43
2023/12/25 01:39:06;;;;;;;1.00;1.00;;;16.40;74.80;17.50;99894.00;;;;5071230;28;20228;-45
2023/12/25 01:41:31;;;;;;;1.20;1.20;;;16.40;74.80;17.50;99891.00;;;;5064602;28;20593;-44
2023/12/25 01:43:57;;;;;;;1.30;1.20;;;16.30;74.80;17.50;99886.00;;;;5074579;28;20187;-44
2023/12/25 01:46:23;;;;;;;1.33;1.30;;;16.40;74.80;17.50;99908.00;;;;5066511;28;20543;-43
2023/12/25 01:48:51;;;;;;;1.20;1.10;;;16.30;74.80;17.50;99901.00;;;;5065667;28;20185;-45
2023/12/25 01:51:19;;;;;;;1.00;0.90;;;16.30;74.70;17.50;99891.00;;;;5067556;28;20227;-45
2023/12/25 01:53:44;;;;;;;1.10;1.10;;;16.30;74.70;17.50;99892.00;;;;5031297;28;20178;-43
2023/12/25 01:56:10;;;;;;;1.07;1.00;;;16.30;74.70;17.50;99914.00;;;;5041496;28;20820;-44
2023/12/25 01:58:36;;;;;;;1.03;1.03;;;16.30;74.60;17.50;99898.00;;;;5052047;28;20208;-44
2023/12/25 02:01:02;;;;;;;1.40;1.30;;;16.30;74.70;17.50;99894.00;;;;5072142;28;20658;-44
2023/12/25 02:03:28;;;;;;;1.13;1.13;;;16.30;74.70;17.50;99907.00;;;;5071864;28;20216;-44
2023/12/25 02:05:53;;;;;;;1.30;1.20;;;16.30;75.40;17.40;99917.00;;;;5056687;28;20568;-44
2023/12/25 02:08:19;;;;;;;1.00;1.00;;;16.30;74.70;17.40;99908.00;;;;5047141;28;20193;-44
2023/12/25 02:10:45;;;;;;;1.33;1.20;;;16.30;74.70;17.40;99910.00;;;;5055007;28;20199;-45
2023/12/25 02:13:11;;;;;;;1.10;1.10;;;16.30;74.60;17.40;99911.00;;;;5074135;28;20648;-43
2023/12/25 02:15:39;;;;;;;0.90;0.90;;;16.30;74.60;17.40;99923.00;;;;5077552;28;20198;-45
2023/12/25 02:18:04;;;;;;;1.30;1.20;;;16.30;74.70;17.40;99913.00;;;;5040313;28;20185;-44
2023/12/25 02:20:31;;;;;;;1.27;1.17;;;16.30;74.70;17.40;99920.00;;;;5082112;28;20246;-43
2023/12/25 02:22:56;;;;;;;1.10;1.10;;;16.30;74.70;17.40;99918.00;;;;5058500;28;20216;-44
2023/12/25 02:25:33;;;;;;;1.00;1.00;;;16.30;74.60;17.40;99911.00;;;;5023344;28;20602;-44
2023/12/25 02:28:02;;;;;;;0.87;0.87;;;16.30;74.50;17.40;99908.00;;;;5075342;28;20219;-43
2023/12/25 02:30:28;;;;;;;1.00;1.00;;;16.30;74.60;17.40;99914.00;;;;5047904;28;20262;-44
2023/12/25 02:32:54;;;;;;;0.90;0.90;;;16.20;74.60;17.40;99905.00;;;;5056270;28;20174;-44
2023/12/25 02:35:20;;;;;;;0.90;0.90;;;16.30;74.70;17.40;99910.00;;;;5064734;28;20180;-45
2023/12/25 02:37:46;;;;;;;0.93;0.93;;;16.30;75.40;17.40;99921.00;;;;5072605;28;20181;-44
2023/12/25 02:40:12;;;;;;;1.20;1.17;;;16.30;74.60;17.30;99902.00;;;;5073025;28;20273;-44
2023/12/25 02:42:37;;;;;;;0.97;0.97;;;16.30;74.70;17.30;99904.00;;;;5067791;28;20178;-44
2023/12/25 02:45:04;;;;;;;1.37;1.37;;;16.20;74.60;17.30;99907.00;;;;5071274;28;20654;-45
2023/12/25 02:47:29;;;;;;;0.77;0.77;;;16.20;74.60;17.30;99910.00;;;;5071110;28;20182;-44
2023/12/25 02:49:55;;;;;;;0.90;0.90;;;16.20;74.60;17.30;99910.00;;;;5073317;28;20204;-44
2023/12/25 02:52:21;;;;;;;0.73;0.73;;;16.20;74.60;17.30;99910.00;;;;5070632;28;20176;-44
2023/12/25 02:54:46;;;;;;;0.80;0.80;;;16.20;74.60;17.30;99907.00;;;;5068821;28;20696;-43
2023/12/25 02:57:12;;;;;;;0.97;0.97;;;16.20;74.50;17.30;99923.00;;;;5070728;28;20177;-43
2023/12/25 02:59:38;;;;;;;0.87;0.87;;;16.20;74.50;17.30;99918.00;;;;5073093;28;20576;-43
2023/12/25 03:02:04;;;;;;;0.70;0.70;;;16.20;74.60;17.30;99925.00;;;;5074404;28;20171;-44
2023/12/25 03:04:30;;;;;;;1.20;1.10;;;16.20;74.60;17.30;99923.00;;;;5044758;28;20177;-44
2023/12/25 03:06:55;;;;;;;0.80;0.80;;;16.20;74.60;17.30;99906.00;;;;5072850;28;20187;-45
2023/12/25 03:09:21;;;;;;;1.13;1.10;;;16.20;74.60;17.30;99922.00;;;;5072073;28;20268;-44
2023/12/25 03:11:47;;;;;;;1.17;1.10;;;16.20;74.60;17.30;99917.00;;;;5085736;28;20688;-44
2023/12/25 03:14:13;;;;;;;0.80;0.80;;;16.20;74.60;17.30;99931.00;;;;5072418;28;20203;-44
2023/12/25 03:16:39;;;;;;;0.90;0.90;;;16.20;74.60;17.30;99929.00;;;;5066904;28;20176;-43
2023/12/25 03:19:05;;;;;;;1.17;1.07;;;16.20;74.60;17.30;99947.00;;;;5070478;28;20163;-43
2023/12/25 03:21:30;;;;;;;1.10;1.00;;;16.20;74.60;17.30;99932.00;;;;5070590;28;20314;-46
2023/12/25 03:23:56;;;;;;;0.90;0.90;;;16.20;74.60;17.30;99931.00;;;;5072787;28;20187;-44
2023/12/25 03:26:22;;;;;;;0.90;0.90;;;16.20;74.60;17.30;99923.00;;;;5069510;28;20182;-45
2023/12/25 03:28:48;;;;;;;0.70;0.70;;;16.10;74.50;17.30;99948.00;;;;5070533;28;20263;-44
2023/12/25 03:31:14;;;;;;;0.70;0.70;;;16.10;74.50;17.30;99935.00;;;;5043761;28;20231;-43
2023/12/25 03:33:40;;;;;;;0.90;0.90;;;16.10;74.50;17.30;99933.00;;;;5025213;28;20728;-43
2023/12/25 03:36:07;;;;;;;0.80;0.80;;;16.10;74.40;17.20;99938.00;;;;5075967;28;20179;-43
2023/12/25 03:38:33;;;;;;;1.07;1.07;;;16.20;74.50;17.20;99946.00;;;;5044023;28;20177;-44
2023/12/25 03:40:59;;;;;;;0.80;0.80;;;16.20;74.60;17.20;99945.00;;;;5069338;28;20207;-46
2023/12/25 03:43:25;;;;;;;0.80;0.80;;;16.10;74.50;17.20;99946.00;;;;5043901;28;20181;-44
2023/12/25 03:45:51;;;;;;;0.87;0.87;;;16.10;74.50;17.20;99936.00;;;;5071721;28;20188;-44
2023/12/25 03:48:16;;;;;;;0.97;0.97;;;16.10;74.40;17.20;99945.00;;;;5045855;28;20177;-44
2023/12/25 03:50:42;;;;;;;0.67;0.67;;;16.10;74.40;17.20;99933.00;;;;5069852;28;20570;-44
2023/12/25 03:53:08;;;;;;;0.60;0.60;;;16.10;74.50;17.20;99930.00;;;;5072461;28;20249;-44
2023/12/25 03:55:36;;;;;;;0.77;0.77;;;16.10;74.50;17.20;99933.00;;;;5066356;28;20705;-44
2023/12/25 03:58:03;;;;;;;0.97;0.97;;;16.10;74.50;17.20;99928.00;;;;5072403;28;20226;-44
2023/12/25 04:00:28;;;;;;;0.90;0.90;;;16.10;74.50;17.20;99916.00;;;;5050331;28;20197;-43
2023/12/25 04:02:56;;;;;;;0.73;0.73;;;16.10;74.50;17.20;99928.00;;;;5072401;28;20182;-43
2023/12/25 04:05:22;;;;;;;0.93;0.93;;;16.10;75.30;17.20;99928.00;;;;5045173;28;20179;-45
2023/12/25 04:07:48;;;;;;;0.73;0.73;;;16.10;74.60;17.20;99920.00;;;;5053934;28;20274;-45
2023/12/25 04:10:15;;;;;;;0.73;0.73;;;16.10;74.60;17.20;99918.00;;;;5071177;28;20279;-43
2023/12/25 04:12:41;;;;;;;1.03;1.03;;;16.10;74.50;17.20;99933.00;;;;5063578;28;20177;-44
2023/12/25 04:15:07;;;;;;;0.83;0.83;;;16.10;74.40;17.20;99919.00;;;;5073609;28;20164;-44
2023/12/25 04:17:32;;;;;;;1.00;1.00;;;16.10;74.50;17.20;99919.00;;;;5066734;28;20163;-45
2023/12/25 04:19:58;;;;;;;0.90;0.90;;;16.10;74.40;17.20;99936.00;;;;5068898;28;20737;-43
2023/12/25 04:22:24;;;;;;;0.80;0.80;;;16.10;74.50;17.20;99937.00;;;;5043158;28;20190;-43
2023/12/25 04:24:50;;;;;;;0.90;0.90;;;16.00;74.30;17.20;99944.00;;;;5071274;28;20189;-44
2023/12/25 04:27:15;;;;;;;0.83;0.83;;;16.10;74.40;17.20;99937.00;;;;5070603;28;20190;-43
2023/12/25 04:29:41;;;;;;;1.00;1.00;;;16.00;74.30;17.20;99943.00;;;;5066979;28;20188;-44
2023/12/25 04:32:07;;;;;;;1.10;1.00;;;16.00;74.30;17.20;99944.00;;;;5072266;28;20196;-44
2023/12/25 04:34:32;;;;;;;1.43;0.93;;;16.10;74.50;17.20;99951.00;;;;5067689;28;20603;-44
2023/12/25 04:36:58;;;;;;;0.80;0.80;;;16.00;74.30;17.10;99948.00;;;;5071106;28;20179;-44
2023/12/25 04:39:24;;;;;;;0.90;0.90;;;16.00;74.30;17.10;99949.00;;;;5065727;28;20192;-45
2023/12/25 04:41:49;;;;;;;1.00;1.00;;;16.00;74.30;17.10;99950.00;;;;5075225;28;20205;-45
2023/12/25 04:44:15;;;;;;;3.03;1.10;;;16.00;74.30;17.10;99957.00;;;;5071643;28;20181;-43
2023/12/25 04:46:41;;;;;;;3.27;1.30;;;16.10;74.80;17.10;99956.00;;;;5065708;28;20199;-44
2023/12/25 04:49:07;;;;;;;1.50;0.93;;;16.10;74.80;17.10;99950.00;;;;5068756;28;20650;-44
2023/12/25 04:51:32;;;;;;;1.27;0.90;;;16.20;74.90;17.10;99954.00;;;;5069210;28;20201;-44
2023/12/25 04:53:58;;;;;;;1.90;0.93;;;16.20;74.80;17.20;99947.00;;;;5071640;28;20278;-43
2023/12/25 04:56:24;;;;;;;0.70;0.70;;;16.30;74.70;17.20;99953.00;;;;5067513;28;20546;-43
2023/12/25 04:58:50;;;;;;;2.10;0.97;;;16.40;74.70;17.20;99948.00;;;;5069264;28;20173;-43
2023/12/25 05:01:16;;;;;;;1.13;0.90;;;16.40;74.50;17.30;99935.00;;;;5068593;28;20279;-44
2023/12/25 05:03:41;;;;;;;1.20;0.80;;;16.60;74.40;17.40;99929.00;;;;5069271;28;20773;-44
2023/12/25 05:06:07;;;;;;;0.83;0.83;;;16.70;74.30;17.40;99943.00;;;;5072243;28;20181;-44
2023/12/25 05:08:33;;;;;;;1.50;0.63;;;16.80;74.00;17.50;99936.00;;;;5065285;28;20187;-43
2023/12/25 05:10:58;;;;;;;0.93;0.93;;;17.00;74.10;17.60;99923.00;;;;5067680;28;20207;-44
2023/12/25 05:13:24;;;;;;;1.10;1.00;;;17.00;73.80;17.70;99931.00;;;;5068671;28;20234;-44
2023/12/25 05:15:50;;;;;;;0.77;0.77;;;17.20;73.70;17.80;99916.00;;;;5070037;28;20169;-44
2023/12/25 05:18:16;;;;;;;1.13;0.87;;;17.20;73.50;17.80;99912.00;;;;5069150;28;20177;-44
2023/12/25 05:20:42;;;;;;;0.70;0.70;;;17.30;73.60;17.90;99926.00;;;;5065166;28;20196;-44
2023/12/25 05:23:08;;;;;;;0.97;0.73;;;17.30;73.60;18.00;99929.00;;;;5068436;28;20185;-44
2023/12/25 05:25:33;;;;;;;0.90;0.80;;;17.40;73.80;18.00;99919.00;;;;5068745;28;20226;-43
2023/12/25 05:27:59;;;;;;;1.43;0.87;;;17.40;73.90;18.10;99922.00;;;;5071179;28;20561;-45
2023/12/25 05:30:25;;;;;;;1.30;1.03;;;17.40;74.10;18.10;99920.00;;;;5068798;28;20204;-44
2023/12/25 05:32:50;;;;;;;1.10;0.70;;;17.40;74.20;18.10;99924.00;;;;5065846;28;20185;-44
2023/12/25 05:35:16;;;;;;;2.10;0.80;;;17.50;74.20;18.20;99931.00;;;;5059749;28;20177;-45
2023/12/25 05:37:42;;;;;;;0.53;0.53;;;17.50;74.20;18.20;99920.00;;;;5051674;28;20172;-44
2023/12/25 05:40:08;;;;;;;0.97;0.97;;;17.50;74.20;18.20;99918.00;;;;5045315;28;20209;-44
2023/12/25 05:42:34;;;;;;;1.80;0.80;;;17.50;74.30;18.20;99917.00;;;;5049102;28;20184;-44
2023/12/25 05:45:00;;;;;;;0.90;0.60;;;17.50;74.40;18.20;99905.00;;;;5073163;28;20165;-44
2023/12/25 05:47:26;;;;;;;1.17;1.07;;;17.50;74.30;18.20;99901.00;;;;5071835;28;20169;-44
2023/12/25 05:49:54;;;;;;;0.83;0.83;;;17.50;74.40;18.20;99911.00;;;;5072274;28;20198;-45
2023/12/25 05:52:20;;;;;;;2.37;0.83;;;17.50;74.50;18.20;99910.00;;;;5070420;28;20201;-44
2023/12/25 05:54:46;;;;;;;0.60;0.60;;;17.50;74.60;18.20;99915.00;;;;5069015;28;20678;-44
2023/12/25 05:57:11;;;;;;;0.97;0.80;;;17.50;74.60;18.30;99916.00;;;;5070064;28;20331;-44
2023/12/25 05:59:37;;;;;;;0.77;0.77;;;17.50;74.70;18.30;99927.00;;;;5064763;28;20192;-44
2023/12/25 06:02:04;;;;;;;0.70;0.70;;;17.40;74.60;18.30;99925.00;;;;5070762;28;20195;-43
2023/12/25 06:04:30;;;;;;;1.67;1.03;;;17.40;74.60;18.30;99912.00;;;;5068047;28;20182;-43
2023/12/25 06:06:56;;;;;;;2.87;1.13;;;17.40;74.70;18.30;99917.00;;;;5067744;28;20242;-45
2023/12/25 06:09:23;;;;;;;3.33;1.30;;;17.40;74.70;18.20;99915.00;;;;5041118;28;20280;-44
2023/12/25 06:11:48;;;;;;;2.97;1.27;;;17.40;74.70;18.30;99911.00;;;;5071047;28;20208;-44
2023/12/25 06:14:14;;;;;;;3.30;1.13;;;17.40;74.70;18.20;99909.00;;;;5028131;28;20234;-44
2023/12/25 06:16:40;;;;;;;3.90;1.30;;;17.40;74.90;18.20;99903.00;;;;5069997;28;20165;-44
2023/12/25 06:19:05;;;;;;;4.47;1.23;;;17.40;75.10;18.20;99901.00;;;;5049702;28;20174;-44
2023/12/25 06:21:31;;;;;;;2.77;1.20;;;17.40;75.10;18.20;99906.00;;;;5067414;28;20174;-44
2023/12/25 06:23:58;;;;;;;7.93;1.50;;;17.40;75.10;18.20;99923.00;;;;5069703;28;20177;-43
2023/12/25 06:26:23;;;;;;;6.93;1.33;;;17.30;74.90;18.20;99921.00;;;;5062210;28;20563;-43
2023/12/25 06:28:49;;;;;;;2.17;1.10;;;17.40;75.10;18.20;99921.00;;;;5068832;28;20184;-43
2023/12/25 06:31:15;;;;;;;3.33;1.10;;;17.30;75.00;18.20;99921.00;;;;5060915;28;20218;-43
2023/12/25 06:33:41;;;;;;;5.90;1.37;;;17.30;74.90;18.20;99928.00;;;;5062729;28;20186;-44
2023/12/25 06:36:07;;;;;;;1.57;1.10;;;17.30;75.00;18.20;99928.00;;;;5062894;28;20255;-44
2023/12/25 06:38:33;;;;;;;2.27;1.10;;;17.30;75.00;18.20;99928.00;;;;5067124;28;20740;-44
2023/12/25 06:41:00;;;;;;;3.10;1.00;;;17.30;75.00;18.20;99927.00;;;;5070080;28;20212;-45
2023/12/25 06:43:25;;;;;;;2.37;1.30;;;17.30;75.00;18.20;99915.00;;;;5040008;28;20596;-44
2023/12/25 06:45:51;;;;;;;3.03;1.13;;;17.30;75.00;18.20;99921.00;;;;5068992;28;20194;-44
2023/12/25 06:48:17;;;;;;;2.53;1.27;;;17.30;75.00;18.20;99905.00;;;;5069174;28;20227;-44
2023/12/25 06:50:43;;;;;;;2.83;1.17;;;17.20;75.00;18.20;99909.00;;;;5070769;28;20235;-44
2023/12/25 06:53:08;;;;;;;1.33;1.03;;;17.20;75.00;18.20;99916.00;;;;5073889;28;20230;-44
2023/12/25 06:55:34;;;;;;;1.63;0.90;;;17.20;75.00;18.20;99912.00;;;;5069227;28;20577;-44
2023/12/25 06:58:00;;;;;;;1.63;1.30;;;17.20;75.00;18.10;99905.00;;;;5075359;28;20174;-45
2023/12/25 07:00:26;;;;;;;2.03;0.80;;;17.20;75.00;18.10;99901.00;;;;5072334;28;20764;-44
2023/12/25 07:02:51;;;;;;;1.67;1.10;;;17.20;75.00;18.10;99904.00;;;;5063323;28;20693;-44
2023/12/25 07:05:17;;;;;;;1.60;1.10;;;17.20;75.00;18.10;99908.00;;;;5074940;28;20641;-45
2023/12/25 07:07:43;;;;;;;1.60;1.20;;;17.20;75.00;18.10;99909.00;;;;5067359;28;20186;-45
2023/12/25 07:10:09;;;;;;;0.90;0.90;;;17.20;75.00;18.10;99901.00;;;;5074985;28;20206;-44
2023/12/25 07:12:34;;;;;;;2.40;1.10;;;17.20;75.10;18.10;99914.00;;;;5066123;28;20183;-43
2023/12/25 07:15:00;;;;;;;2.43;1.47;;;17.20;75.30;18.10;99919.00;;;;5076898;28;20184;-44
2023/12/25 07:17:26;;;;;;;1.67;1.20;;;17.20;75.30;18.10;99911.00;;;;5067405;28;20606;-44
2023/12/25 07:19:52;;;;;;;1.23;1.10;;;17.10;75.30;18.10;99925.00;;;;5067993;28;20198;-44
2023/12/25 07:22:18;;;;;;;2.63;1.07;;;17.20;75.40;18.10;99921.00;;;;5070138;28;20177;-44
2023/12/25 07:24:44;;;;;;;1.07;0.97;;;17.10;75.30;18.10;99919.00;;;;5069676;28;20188;-44
2023/12/25 07:27:10;;;;;;;0.90;0.90;;;17.10;75.20;18.00;99934.00;;;;5047221;28;20183;-44
2023/12/25 07:29:36;;;;;;;2.20;1.33;;;17.20;75.30;18.00;99939.00;;;;5072435;28;20615;-45
2023/12/25 07:32:02;;;;;;;1.97;1.20;;;17.10;75.20;18.00;99942.00;;;;5067165;28;20197;-45
2023/12/25 07:34:28;;;;;;;0.87;0.87;;;17.10;75.20;18.00;99926.00;;;;5067295;28;20245;-45
2023/12/25 07:36:54;;;;;;;1.80;1.00;;;17.10;75.30;18.00;99936.00;;;;5066564;28;20181;-45
2023/12/25 07:39:19;;;;;;;1.43;1.10;;;17.00;75.10;18.00;99931.00;;;;5070944;28;20628;-44
2023/12/25 07:41:46;;;;;;;1.20;1.00;;;17.00;75.00;18.00;99941.00;;;;5052747;28;20182;-43
2023/12/25 07:44:17;;;;;;;2.37;1.10;;;17.00;75.00;18.00;99949.00;;;;5071854;28;20176;-44
2023/12/25 07:46:43;;;;;;;1.03;1.00;;;17.00;75.20;17.90;99948.00;;;;5065834;28;20197;-44
2023/12/25 07:49:09;;;;;;;1.23;0.80;;;17.00;75.10;17.90;99954.00;;;;5069008;28;20170;-44
2023/12/25 07:51:35;;;;;;;0.97;0.90;;;17.00;75.10;17.90;99951.00;;;;5069696;28;20201;-44
2023/12/25 07:54:01;;;;;;;0.77;0.77;;;17.00;75.00;17.90;99948.00;;;;5072877;28;20290;-44
2023/12/25 07:56:27;;;;;;;1.23;1.00;;;17.00;75.10;17.90;99950.00;;;;5035774;28;20178;-44
2023/12/25 07:58:52;;;;;;;0.90;0.90;;;17.00;75.10;17.90;99947.00;;;;5068596;28;20629;-45
2023/12/25 08:01:22;;;;;;;1.10;0.80;;;17.00;75.10;17.90;99940.00;;;;5069411;28;20228;-44
2023/12/25 08:03:50;;;;;;;0.90;0.90;;;17.00;75.20;17.70;99958.00;;;;5066944;28;20213;-44
2023/12/25 08:06:15;;;;;;;0.67;0.67;;;17.00;75.20;17.90;99953.00;;;;5069551;28;20181;-44
2023/12/25 08:08:41;;;;;;;1.27;1.13;;;16.90;75.10;17.80;99952.00;;;;5064291;28;20239;-44
2023/12/25 08:11:07;;;;;;;0.80;0.50;;;16.90;75.10;17.80;99948.00;;;;5068997;28;20587;-44
2023/12/25 08:13:32;;;;;;;1.27;0.97;;;16.90;75.10;17.80;99960.00;;;;5069249;28;20180;-44
2023/12/25 08:15:58;;;;;;;1.30;1.20;;;16.90;75.20;17.80;99958.00;;;;5071538;28;20180;-43
2023/12/25 08:18:24;;;;;;;0.70;0.70;;;16.90;75.20;17.80;99965.00;;;;5067394;28;20176;-43
2023/12/25 08:20:50;;;;;;;1.23;0.73;;;16.90;75.10;17.80;99945.00;;;;5066575;28;20685;-43
2023/12/25 08:23:15;;;;;;;0.70;0.70;;;16.90;75.20;17.80;99953.00;;;;5069307;28;20173;-43
2023/12/25 08:25:41;;;;;;;0.57;0.57;;;16.90;75.10;17.80;99962.00;;;;5069036;28;20176;-46
2023/12/25 08:28:07;;;;;;;1.53;0.73;;;16.90;75.20;17.80;99957.00;;;;5045904;28;20185;-43
2023/12/25 08:30:33;;;;;;;1.00;0.90;;;16.80;75.10;17.80;99953.00;;;;5046484;28;20750;-43
2023/12/25 08:32:58;;;;;;;0.83;0.80;;;16.90;75.30;17.80;99955.00;;;;5048516;28;20176;-43
2023/12/25 08:35:24;;;;;;;0.60;0.60;;;16.80;75.20;17.70;99962.00;;;;5068378;28;20162;-43
2023/12/25 08:37:50;;;;;;;0.90;0.80;;;16.80;75.30;17.80;99970.00;;;;5074708;28;20794;-44
2023/12/25 08:40:16;;;;;;;2.53;1.00;;;16.90;75.50;17.80;99979.00;;;;5068310;28;20199;-44
2023/12/25 08:42:41;;;;;;;2.43;0.80;;;16.90;75.50;17.80;99980.00;;;;5065451;28;20239;-44
2023/12/25 08:45:07;;;;;;;1.17;1.03;;;16.90;75.40;17.80;99974.00;;;;5049422;28;20534;-44
2023/12/25 08:47:34;;;;;;;2.70;1.20;;;17.00;75.40;17.80;99990.00;;;;5043713;28;21101;-43
2023/12/25 08:49:59;;;;;;;1.33;1.13;;;17.10;75.40;17.90;99984.00;;;;5068600;28;20207;-44
2023/12/25 08:52:25;;;;;;;1.17;0.93;;;17.20;75.40;17.90;99985.00;;;;5064953;28;20201;-44
2023/12/25 08:54:51;;;;;;;3.33;1.03;;;17.30;75.20;18.00;99988.00;;;;5069576;28;20194;-44
2023/12/25 08:57:16;;;;;;;0.73;0.73;;;17.40;74.90;18.10;99987.00;;;;5067665;28;20204;-44
2023/12/25 08:59:43;;;;;;;2.20;0.80;;;17.60;74.70;18.20;99989.00;;;;5069467;28;20218;-44
2023/12/25 09:02:09;;;;;;;1.00;0.87;;;17.60;74.50;18.30;100003.00;;;;5070314;28;20177;-45
2023/12/25 09:04:35;;;;;;;0.80;0.80;;;17.80;74.30;18.40;99993.00;;;;5071761;28;20660;-48
2023/12/25 09:07:01;;;;;;;0.90;0.90;;;17.90;74.20;18.50;100006.00;;;;5063442;28;20177;-44
2023/12/25 09:09:26;;;;;;;0.93;0.90;;;18.00;73.90;18.60;100015.00;;;;5043441;28;20212;-44
2023/12/25 09:11:52;;;;;;;2.03;0.90;;;18.20;73.70;18.70;100021.00;;;;5070415;28;20233;-45
2023/12/25 09:14:20;;;;;;;0.50;0.50;;;18.30;73.40;18.80;100022.00;;;;5076038;28;20204;-44
2023/12/25 09:16:46;;;;;;;0.80;0.80;;;18.50;73.10;18.90;100020.00;;;;5065433;28;20222;-44
2023/12/25 09:19:12;;;;;;;1.27;0.90;;;18.60;73.10;19.00;100006.00;;;;5066639;28;20249;-44
2023/12/25 09:21:40;;;;;;;0.83;0.83;;;18.70;72.90;19.10;100026.00;;;;5067787;28;20169;-44
2023/12/25 09:24:06;;;;;;;0.67;0.67;;;18.80;72.80;19.20;100022.00;;;;5063889;28;20180;-44
2023/12/25 09:26:32;;;;;;;0.77;0.73;;;18.80;73.00;19.30;100023.00;;;;5067548;28;20656;-44
2023/12/25 09:28:58;;;;;;;0.90;0.53;;;19.00;73.30;19.40;100009.00;;;;5072165;28;20181;-44
2023/12/25 09:31:23;;;;;;;1.17;0.80;;;19.10;73.10;19.50;100028.00;;;;5044761;28;20209;-44
2023/12/25 09:33:49;;;;;;;1.37;0.90;;;19.10;73.00;19.60;100018.00;;;;5065708;28;20643;-45
2023/12/25 09:36:15;;;;;;;1.20;0.77;;;19.30;72.90;19.70;100014.00;;;;5066099;28;20664;-44
2023/12/25 09:38:40;;;;;;;2.03;0.80;;;19.30;72.70;19.80;100031.00;;;;5062987;28;20193;-44
2023/12/25 09:41:10;;;;;;;3.03;0.93;;;19.50;72.70;19.90;100033.00;;;;5063783;28;20193;-44
2023/12/25 09:43:39;;;;;;;0.90;0.70;;;19.50;72.60;19.90;100017.00;;;;5067475;28;20175;-44
2023/12/25 09:46:04;;;;;;;0.90;0.70;;;19.60;72.80;20.00;100031.00;;;;5070685;28;20276;-43
2023/12/25 09:48:31;;;;;;;0.97;0.80;;;19.50;73.30;20.10;100030.00;;;;5040242;28;20315;-44
2023/12/25 09:50:57;;;;;;;5.33;1.20;;;19.60;73.40;20.10;100025.00;;;;5069025;28;20201;-44
2023/12/25 09:53:23;;;;;;;4.60;1.00;;;19.60;73.40;20.10;100022.00;;;;5043544;28;20205;-44
2023/12/25 09:55:49;;;;;;;3.87;0.70;;;19.60;73.40;20.10;100028.00;;;;5050501;28;20200;-44
2023/12/25 09:58:15;;;;;;;3.20;1.00;;;19.60;73.50;20.20;100023.00;;;;5018594;28;20169;-45
2023/12/25 10:00:41;;;;;;;3.63;1.17;;;19.60;73.60;20.20;100041.00;;;;5025658;28;20621;-45
2023/12/25 10:03:07;;;;;;;2.23;0.63;;;19.60;73.70;20.20;100051.00;;;;5062322;28;20876;-44
2023/12/25 10:05:32;;;;;;;1.90;0.60;;;19.60;73.70;20.20;100037.00;;;;5066964;28;20436;-44
2023/12/25 10:07:58;;;;;;;2.50;0.80;;;19.60;73.80;20.10;100052.00;;;;5052079;28;20185;-44
2023/12/25 10:10:31;;;;;;;1.20;0.80;;;19.60;73.80;20.20;100048.00;;;;5064833;28;20215;-42
2023/12/25 10:12:59;;;;;;;2.73;1.20;;;19.60;73.80;20.30;100058.00;;;;5071932;28;20181;-42
2023/12/25 10:15:25;;;;;;;3.50;1.20;;;19.50;73.60;20.20;100040.00;;;;5066845;28;20184;-42
2023/12/25 10:18:05;;;;;;;3.33;1.17;;;19.50;73.70;20.20;100020.00;;;;5067864;28;20173;-43
2023/12/25 10:20:30;;;;;;;2.27;0.43;;;19.50;73.70;20.20;100054.00;;;;5046115;28;20205;-42
2023/12/25 10:22:56;;;;;;;1.30;0.80;;;19.50;73.90;20.00;100055.00;;;;5039788;28;20179;-42
2023/12/25 10:25:29;;;;;;;2.07;0.80;;;19.50;73.80;20.20;100050.00;;;;5069884;28;20181;-42
2023/12/25 10:27:55;;;;;;;4.97;1.07;;;19.50;73.70;20.20;100035.00;;;;5068747;28;20180;-42
2023/12/25 10:30:23;;;;;;;4.93;0.87;;;19.50;73.50;20.20;100024.00;;;;5047212;28;20832;-42
2023/12/25 10:32:49;;;;;;;2.60;0.90;;;19.50;73.50;20.30;100045.00;;;;5064938;28;20196;-42
2023/12/25 10:35:17;;;;;;;0.97;0.87;;;19.60;73.40;20.30;100036.00;;;;5064607;28;20663;-43
2023/12/25 10:37:45;;;;;;;2.10;0.60;;;19.60;73.30;20.30;100037.00;;;;5070306;28;20182;-43
2023/12/25 10:40:24;;;;;;;0.50;0.50;;;19.60;73.30;20.30;100028.00;;;;5072082;28;20565;-42
2023/12/25 10:42:52;;;;;;;0.80;0.53;;;19.60;73.10;20.30;100017.00;;;;5072645;28;20265;-42
2023/12/25 10:45:21;;;;;;;0.90;0.80;;;19.70;73.10;20.40;100033.00;;;;5071642;28;20236;-42
2023/12/25 10:47:57;;;;;;;0.57;0.57;;;19.70;73.00;20.40;100035.00;;;;5075213;28;20665;-42